createdAt,value
2018-11-27T00:00:26.197Z,26.97
2018-11-27T00:03:07.312Z,28.10
2018-11-27T00:05:36.998Z,27.03
2018-11-27T00:08:06.049Z,26.90
2018-11-27T00:10:36.149Z,27.50
2018-11-27T00:13:05.343Z,27.60
2018-11-27T00:15:33.788Z,26.90
2018-11-27T00:18:02.597Z,28.60
2018-11-27T00:20:31.092Z,26.73
2018-11-27T00:22:59.988Z,26.30
2018-11-27T00:25:28.477Z,26.73
2018-11-27T00:27:57.157Z,29.63
2018-11-27T00:30:25.699Z,25.30
2018-11-27T00:32:55.064Z,25.70
2018-11-27T00:35:23.929Z,28.43
2018-11-27T00:37:53.408Z,28.07
2018-11-27T00:40:22.929Z,26.93
2018-11-27T00:42:51.486Z,27.17
2018-11-27T00:45:21.719Z,28.00
2018-11-27T00:47:51.206Z,28.60
2018-11-27T00:50:22.259Z,27.37
2018-11-27T00:52:50.983Z,27.07
2018-11-27T00:55:20.755Z,28.90
2018-11-27T00:57:52.342Z,28.60
2018-11-27T01:00:23.311Z,27.03
2018-11-27T01:02:51.864Z,27.80
2018-11-27T01:05:21.995Z,24.80
2018-11-27T01:07:50.471Z,27.07
2018-11-27T01:10:23.974Z,27.47
2018-11-27T01:12:52.579Z,27.40
2018-11-27T01:15:21.167Z,28.10
2018-11-27T01:17:51.916Z,27.17
2018-11-27T01:20:21.249Z,26.97
2018-11-27T01:22:49.647Z,27.17
2018-11-27T01:25:18.113Z,27.70
2018-11-27T01:27:46.564Z,29.70
2018-11-27T01:30:16.934Z,28.50
2018-11-27T01:32:45.587Z,27.23
2018-11-27T01:35:18.288Z,26.37
2018-11-27T01:37:47.503Z,27.00
2018-11-27T01:40:21.207Z,25.23
2018-11-27T01:42:50.810Z,26.10
2018-11-27T01:45:20.274Z,26.80
2018-11-27T01:47:49.721Z,26.50
2018-11-27T01:50:18.828Z,25.70
2018-11-27T01:52:47.410Z,26.60
2018-11-27T01:55:18.837Z,29.50
2018-11-27T01:57:47.223Z,28.50
2018-11-27T02:00:25.387Z,27.67
2018-11-27T02:02:54.557Z,27.60
2018-11-27T02:05:23.591Z,27.60
2018-11-27T02:07:52.872Z,28.17
2018-11-27T02:10:21.370Z,26.80
2018-11-27T02:12:51.347Z,26.13
2018-11-27T02:15:25.128Z,27.70
2018-11-27T02:17:54.095Z,25.13
2018-11-27T02:20:22.598Z,26.10
2018-11-27T02:22:51.026Z,25.90
2018-11-27T02:25:25.130Z,28.33
2018-11-27T02:27:53.611Z,25.10
2018-11-27T02:30:23.272Z,27.00
2018-11-27T02:32:51.720Z,27.10
2018-11-27T02:35:21.244Z,25.70
2018-11-27T02:37:50.780Z,27.60
2018-11-27T02:40:19.395Z,27.50
2018-11-27T02:42:47.826Z,25.90
2018-11-27T02:45:17.963Z,28.03
2018-11-27T02:47:47.273Z,26.00
2018-11-27T02:50:17.112Z,27.30
2018-11-27T02:52:45.587Z,26.80
2018-11-27T02:55:24.766Z,26.73
2018-11-27T02:57:53.249Z,25.17
2018-11-27T03:00:24.643Z,25.87
2018-11-27T03:02:53.140Z,26.27
2018-11-27T03:05:39.877Z,27.60
2018-11-27T03:08:08.335Z,26.77
2018-11-27T03:10:36.824Z,24.97
2018-11-27T03:13:05.466Z,26.30
2018-11-27T03:15:33.954Z,26.90
2018-11-27T03:18:02.353Z,26.43
2018-11-27T03:20:30.899Z,25.50
2018-11-27T03:22:59.362Z,27.07
2018-11-27T03:25:27.880Z,27.07
2018-11-27T03:27:56.270Z,25.70
2018-11-27T03:30:26.217Z,27.80
2018-11-27T03:32:54.841Z,25.70
2018-11-27T03:35:24.287Z,24.67
2018-11-27T03:37:52.931Z,25.50
2018-11-27T03:40:22.713Z,24.70
2018-11-27T03:42:51.208Z,25.70
2018-11-27T03:45:20.345Z,26.60
2018-11-27T03:47:48.905Z,25.67
2018-11-27T03:50:22.393Z,24.77
2018-11-27T03:52:50.841Z,25.53
2018-11-27T03:55:19.294Z,25.30
2018-11-27T03:57:48.381Z,25.00
2018-11-27T04:00:22.396Z,24.43
2018-11-27T04:02:52.506Z,24.33
2018-11-27T04:05:21.244Z,24.63
2018-11-27T04:07:49.736Z,25.57
2018-11-27T04:10:19.237Z,26.23
2018-11-27T04:12:47.662Z,24.70
2018-11-27T04:15:16.857Z,25.57
2018-11-27T04:17:45.427Z,26.00
2018-11-27T04:20:14.075Z,24.60
2018-11-27T04:22:43.434Z,24.53
2018-11-27T04:25:19.700Z,24.87
2018-11-27T04:27:48.650Z,24.30
2018-11-27T04:30:19.835Z,24.07
2018-11-27T04:32:48.983Z,25.00
2018-11-27T04:35:18.383Z,25.00
2018-11-27T04:37:46.890Z,27.40
2018-11-27T04:40:17.122Z,24.63
2018-11-27T04:42:45.587Z,25.97
2018-11-27T04:45:17.272Z,25.50
2018-11-27T04:47:46.600Z,23.90
2018-11-27T04:50:15.874Z,22.20
2018-11-27T04:52:44.485Z,24.00
2018-11-27T04:55:14.145Z,22.93
2018-11-27T04:57:42.936Z,25.00
2018-11-27T05:00:17.364Z,23.10
2018-11-27T05:02:45.879Z,24.57
2018-11-27T05:05:14.312Z,25.90
2018-11-27T05:07:42.724Z,23.53
2018-11-27T05:10:13.977Z,24.60
2018-11-27T05:12:42.889Z,23.80
2018-11-27T05:15:13.634Z,24.30
2018-11-27T05:17:47.952Z,24.50
2018-11-27T05:20:12.533Z,24.50
2018-11-27T05:22:41.257Z,24.83
2018-11-27T05:25:17.254Z,24.40
2018-11-27T05:27:48.490Z,25.17
2018-11-27T05:30:20.903Z,24.97
2018-11-27T05:32:49.412Z,21.53
2018-11-27T05:35:19.097Z,22.60
2018-11-27T05:37:48.556Z,22.03
2018-11-27T05:40:18.216Z,24.40
2018-11-27T05:42:47.181Z,23.63
2018-11-27T05:45:16.861Z,23.07
2018-11-27T05:47:45.434Z,24.00
2018-11-27T05:50:14.912Z,23.87
2018-11-27T05:52:43.474Z,24.13
2018-11-27T05:55:12.976Z,23.17
2018-11-27T05:57:41.620Z,23.70
2018-11-27T06:00:15.432Z,23.70
2018-11-27T06:02:44.132Z,23.10
2018-11-27T06:05:17.598Z,22.47
2018-11-27T06:07:46.218Z,21.00
2018-11-27T06:10:15.775Z,24.77
2018-11-27T06:12:46.184Z,24.30
2018-11-27T06:15:22.444Z,24.67
2018-11-27T06:17:52.937Z,20.90
2018-11-27T06:20:22.430Z,23.87
2018-11-27T06:22:51.151Z,23.80
2018-11-27T06:25:21.750Z,23.97
2018-11-27T06:27:53.610Z,22.00
2018-11-27T06:30:23.376Z,22.07
2018-11-27T06:32:52.786Z,21.97
2018-11-27T06:35:34.248Z,23.30
2018-11-27T06:38:04.058Z,23.37
2018-11-27T06:40:32.689Z,21.93
2018-11-27T06:43:01.156Z,22.47
2018-11-27T06:45:29.662Z,22.03
2018-11-27T06:47:58.110Z,22.10
2018-11-27T06:50:26.527Z,22.67
2018-11-27T06:52:54.986Z,22.40
2018-11-27T06:55:24.317Z,20.47
2018-11-27T06:57:52.928Z,21.67
2018-11-27T07:00:25.591Z,23.90
2018-11-27T07:02:54.357Z,21.47
2018-11-27T07:05:22.862Z,21.77
2018-11-27T07:07:52.964Z,22.83
2018-11-27T07:10:27.511Z,21.50
2018-11-27T07:13:01.347Z,23.80
2018-11-27T07:15:29.777Z,21.57
2018-11-27T07:17:58.235Z,23.03
2018-11-27T07:20:26.715Z,23.20
2018-11-27T07:22:55.116Z,23.10
2018-11-27T07:25:23.696Z,22.77
2018-11-27T07:27:52.330Z,24.50
2018-11-27T07:30:23.781Z,21.67
2018-11-27T07:32:52.321Z,22.90
2018-11-27T07:35:20.976Z,22.47
2018-11-27T07:37:50.450Z,21.87
2018-11-27T07:40:22.899Z,20.97
2018-11-27T07:42:53.487Z,22.07
2018-11-27T07:45:22.997Z,22.00
2018-11-27T07:47:51.534Z,20.43
2018-11-27T07:50:20.148Z,20.60
2018-11-27T07:52:48.642Z,22.60
2018-11-27T07:55:21.447Z,20.40
2018-11-27T07:57:50.681Z,21.17
2018-11-27T08:00:22.774Z,21.03
2018-11-27T08:02:52.992Z,20.10
2018-11-27T08:05:25.274Z,20.60
2018-11-27T08:07:54.936Z,19.80
2018-11-27T08:10:24.504Z,21.20
2018-11-27T08:12:53.036Z,20.97
2018-11-27T08:15:23.680Z,20.30
2018-11-27T08:17:52.096Z,19.37
2018-11-27T08:20:23.243Z,18.70
2018-11-27T08:22:51.726Z,20.70
2018-11-27T08:25:20.215Z,18.00
2018-11-27T08:27:48.663Z,19.83
2018-11-27T08:30:19.094Z,18.50
2018-11-27T08:32:47.629Z,20.50
2018-11-27T08:35:31.808Z,19.63
2018-11-27T08:38:01.843Z,19.00
2018-11-27T08:40:33.960Z,18.20
2018-11-27T08:43:02.425Z,17.57
2018-11-27T08:45:30.820Z,19.67
2018-11-27T08:47:59.256Z,17.40
2018-11-27T08:50:28.362Z,17.80
2018-11-27T08:53:00.991Z,18.23
2018-11-27T08:55:31.546Z,16.63
2018-11-27T08:58:00.782Z,19.00
2018-11-27T09:00:29.246Z,16.97
2018-11-27T09:02:58.050Z,17.57
2018-11-27T09:05:26.482Z,16.83
2018-11-27T09:07:54.964Z,18.83
2018-11-27T09:10:25.516Z,16.97
2018-11-27T09:12:54.015Z,16.87
2018-11-27T09:15:23.347Z,15.90
2018-11-27T09:18:01.298Z,16.20
2018-11-27T09:20:29.774Z,16.10
2018-11-27T09:22:58.204Z,16.30
2018-11-27T09:25:26.665Z,15.23
2018-11-27T09:27:55.063Z,15.27
2018-11-27T09:30:24.799Z,15.97
2018-11-27T09:32:53.806Z,15.90
2018-11-27T09:35:22.886Z,14.40
2018-11-27T09:37:51.355Z,14.37
2018-11-27T09:40:20.391Z,15.40
2018-11-27T09:42:48.894Z,15.33
2018-11-27T09:45:21.173Z,15.60
2018-11-27T09:47:52.235Z,15.40
2018-11-27T09:50:20.655Z,15.30
2018-11-27T09:52:49.172Z,15.80
2018-11-27T09:55:19.697Z,14.70
2018-11-27T09:57:48.524Z,14.97
2018-11-27T10:00:21.971Z,15.03
2018-11-27T10:02:51.234Z,14.60
2018-11-27T10:05:20.264Z,14.57
2018-11-27T10:07:49.667Z,14.80
2018-11-27T10:10:19.882Z,15.00
2018-11-27T10:12:48.446Z,15.47
2018-11-27T10:15:17.746Z,13.90
2018-11-27T10:17:50.497Z,14.10
2018-11-27T10:20:20.155Z,15.50
2018-11-27T10:22:48.634Z,12.83
2018-11-27T10:25:17.049Z,14.53
2018-11-27T10:27:45.673Z,12.93
2018-11-27T10:30:16.278Z,13.63
2018-11-27T10:32:44.853Z,13.30
2018-11-27T10:35:20.142Z,14.53
2018-11-27T10:37:48.604Z,13.07
2018-11-27T10:40:17.271Z,13.93
2018-11-27T10:42:45.850Z,13.53
2018-11-27T10:45:18.886Z,12.90
2018-11-27T10:47:48.579Z,14.57
2018-11-27T10:50:18.534Z,14.83
2018-11-27T10:52:48.296Z,13.77
2018-11-27T10:55:17.794Z,13.33
2018-11-27T10:57:46.334Z,13.67
2018-11-27T11:00:24.100Z,13.63
2018-11-27T11:02:57.912Z,13.90
2018-11-27T11:05:27.772Z,13.17
2018-11-27T11:07:55.911Z,13.60
2018-11-27T11:10:24.399Z,14.87
2018-11-27T11:12:52.963Z,13.00
2018-11-27T11:15:21.391Z,12.50
2018-11-27T11:17:49.862Z,11.80
2018-11-27T11:20:18.608Z,11.20
2018-11-27T11:22:47.062Z,10.77
2018-11-27T11:25:16.821Z,9.27
2018-11-27T11:27:46.492Z,10.30
2018-11-27T11:30:18.285Z,9.50
2018-11-27T11:32:46.856Z,11.90
2018-11-27T11:35:15.737Z,11.20
2018-11-27T11:37:44.374Z,12.40
2018-11-27T11:40:21.035Z,11.53
2018-11-27T11:42:51.107Z,11.03
2018-11-27T11:45:19.508Z,10.93
2018-11-27T11:47:47.988Z,11.00
2018-11-27T11:50:17.736Z,9.67
2018-11-27T11:52:49.119Z,11.50
2018-11-27T11:55:18.249Z,10.50
2018-11-27T11:57:47.478Z,10.13
2018-11-27T12:00:19.753Z,11.33
2018-11-27T12:02:48.227Z,12.00
2018-11-27T12:05:16.662Z,12.37
2018-11-27T12:07:45.117Z,11.47
2018-11-27T12:10:14.711Z,12.23
2018-11-27T12:12:44.000Z,11.27
2018-11-27T12:15:14.486Z,11.57
2018-11-27T12:17:43.737Z,11.37
2018-11-27T12:20:14.183Z,10.53
2018-11-27T12:22:44.895Z,12.50
2018-11-27T12:25:14.607Z,12.63
2018-11-27T12:27:43.070Z,11.63
2018-11-27T12:30:16.607Z,12.13
2018-11-27T12:32:45.065Z,11.90
2018-11-27T12:35:14.121Z,12.13
2018-11-27T12:37:42.695Z,13.07
2018-11-27T12:40:15.194Z,11.40
2018-11-27T12:42:44.365Z,11.47
2018-11-27T12:45:21.822Z,12.27
2018-11-27T12:47:50.430Z,13.87
2018-11-27T12:50:23.923Z,13.93
2018-11-27T12:52:52.397Z,14.23
2018-11-27T12:55:22.134Z,11.83
2018-11-27T12:57:50.722Z,13.00
2018-11-27T13:00:21.443Z,12.97
2018-11-27T13:02:49.976Z,10.57
2018-11-27T13:05:28.575Z,10.87
2018-11-27T13:08:00.103Z,10.97
2018-11-27T13:10:28.614Z,11.97
2018-11-27T13:12:57.155Z,12.07
2018-11-27T13:15:25.630Z,10.50
2018-11-27T13:17:54.415Z,11.30
2018-11-27T13:20:22.948Z,10.90
2018-11-27T13:22:51.777Z,10.30
2018-11-27T13:25:24.519Z,12.00
2018-11-27T13:27:55.360Z,11.03
2018-11-27T13:30:31.802Z,11.10
2018-11-27T13:33:07.148Z,13.00
2018-11-27T13:35:35.881Z,11.93
2018-11-27T13:38:04.415Z,12.87
2018-11-27T13:40:32.888Z,10.80
2018-11-27T13:43:01.342Z,12.00
2018-11-27T13:45:29.793Z,12.23
2018-11-27T13:47:58.209Z,13.63
2018-11-27T13:50:26.668Z,12.33
2018-11-27T13:52:55.107Z,11.27
2018-11-27T13:55:23.626Z,12.90
2018-11-27T13:57:52.110Z,13.90
2018-11-27T14:00:20.883Z,12.50
2018-11-27T14:02:51.755Z,11.00
2018-11-27T14:05:21.526Z,12.70
2018-11-27T14:07:50.050Z,12.47
2018-11-27T14:10:19.541Z,12.30
2018-11-27T14:12:48.020Z,12.70
2018-11-27T14:15:19.716Z,12.73
2018-11-27T14:17:48.333Z,13.10
2018-11-27T14:20:17.492Z,11.90
2018-11-27T14:22:46.965Z,12.00
2018-11-27T14:25:16.194Z,12.50
2018-11-27T14:27:45.591Z,11.83
2018-11-27T14:30:22.261Z,12.60
2018-11-27T14:32:51.059Z,13.10
2018-11-27T14:35:20.545Z,11.70
2018-11-27T14:37:50.210Z,12.23
2018-11-27T14:40:19.815Z,12.50
2018-11-27T14:42:48.379Z,12.20
2018-11-27T14:45:20.319Z,12.93
2018-11-27T14:47:49.995Z,11.90
2018-11-27T14:50:18.539Z,12.93
2018-11-27T14:52:46.984Z,13.00
2018-11-27T14:55:19.466Z,12.63
2018-11-27T14:57:48.972Z,11.73
2018-11-27T15:00:18.701Z,13.20
2018-11-27T15:02:47.197Z,13.40
2018-11-27T15:05:18.324Z,13.90
2018-11-27T15:07:47.271Z,14.80
2018-11-27T15:10:15.737Z,14.50
2018-11-27T15:12:44.231Z,15.70
2018-11-27T15:15:13.578Z,15.47
2018-11-27T15:17:42.020Z,13.80
2018-11-27T15:20:15.621Z,20.73
2018-11-27T15:22:44.155Z,12.20
2018-11-27T15:25:13.084Z,14.20
2018-11-27T15:27:41.549Z,12.83
2018-11-27T15:30:11.861Z,14.23
2018-11-27T15:32:40.338Z,13.83
2018-11-27T15:35:09.258Z,12.13
2018-11-27T15:37:37.698Z,12.03
2018-11-27T15:40:09.454Z,12.60
2018-11-27T15:42:37.859Z,11.83
2018-11-27T15:45:08.367Z,13.53
2018-11-27T15:47:36.780Z,13.10
2018-11-27T15:50:06.471Z,11.80
2018-11-27T15:52:34.891Z,11.83
2018-11-27T15:55:03.465Z,12.53
2018-11-27T15:57:31.944Z,12.20
2018-11-27T16:00:00.391Z,13.73
2018-11-27T16:02:28.851Z,13.00
2018-11-27T16:04:57.305Z,12.47
2018-11-27T16:07:25.804Z,12.40
2018-11-27T16:09:54.300Z,12.73
2018-11-27T16:12:22.733Z,12.87
2018-11-27T16:14:51.212Z,13.23
2018-11-27T16:17:19.665Z,12.67
2018-11-27T16:19:48.092Z,12.40
2018-11-27T16:22:16.660Z,13.27
2018-11-27T16:24:45.120Z,13.57
2018-11-27T16:27:13.596Z,12.70
2018-11-27T16:29:42.114Z,13.40
2018-11-27T16:32:10.577Z,12.50
2018-11-27T16:34:39.058Z,14.13
2018-11-27T16:37:07.568Z,13.53
2018-11-27T16:39:35.983Z,14.00
2018-11-27T16:42:04.926Z,12.83
2018-11-27T16:44:33.487Z,13.27
2018-11-27T16:47:02.085Z,13.30
2018-11-27T16:49:30.596Z,14.37
2018-11-27T16:51:59.084Z,13.77
2018-11-27T16:54:27.545Z,13.33
2018-11-27T16:56:56.111Z,13.37
2018-11-27T16:59:24.879Z,12.57
2018-11-27T17:01:53.304Z,13.90
2018-11-27T17:04:21.888Z,13.03
2018-11-27T17:06:50.320Z,11.57
2018-11-27T17:09:18.835Z,13.00
2018-11-27T17:11:47.315Z,13.10
2018-11-27T17:14:16.287Z,12.10
2018-11-27T17:16:45.629Z,11.60
2018-11-27T17:19:14.597Z,11.37
2018-11-27T17:21:43.071Z,12.40
2018-11-27T17:24:11.535Z,11.63
2018-11-27T17:26:39.992Z,11.93
2018-11-27T17:29:08.626Z,11.10
2018-11-27T17:31:37.348Z,11.60
2018-11-27T17:34:10.824Z,11.67
2018-11-27T17:36:41.487Z,13.77
2018-11-27T17:39:11.836Z,17.40
2018-11-27T17:41:40.419Z,18.07
2018-11-27T17:44:12.046Z,12.90
2018-11-27T17:46:40.647Z,13.80
2018-11-27T17:49:09.163Z,12.73
2018-11-27T17:51:37.649Z,12.60
2018-11-27T17:54:06.267Z,29.17
2018-11-27T17:56:34.754Z,16.00
2018-11-27T17:59:03.223Z,15.10
2018-11-27T18:01:31.742Z,16.70
2018-11-27T18:04:00.211Z,12.13
2018-11-27T18:06:29.051Z,12.37
2018-11-27T18:08:57.525Z,11.83
2018-11-27T18:11:26.019Z,11.50
2018-11-27T18:13:55.328Z,10.73
2018-11-27T18:16:23.799Z,10.73
2018-11-27T18:18:52.225Z,11.43
2018-11-27T18:21:20.735Z,12.23
2018-11-27T18:23:49.180Z,10.93
2018-11-27T18:26:17.612Z,11.70
2018-11-27T18:28:46.070Z,11.27
2018-11-27T18:31:14.565Z,12.17
2018-11-27T18:33:43.055Z,12.00
2018-11-27T18:36:11.516Z,11.13
2018-11-27T18:38:39.935Z,11.93
2018-11-27T18:41:08.390Z,11.47
2018-11-27T18:43:37.516Z,12.40
2018-11-27T18:46:06.499Z,14.00
2018-11-27T18:48:34.986Z,11.90
2018-11-27T18:51:03.485Z,12.50
2018-11-27T18:53:31.949Z,12.20
2018-11-27T18:56:00.431Z,12.70
2018-11-27T18:58:28.897Z,14.80
2018-11-27T19:00:57.977Z,14.20
2018-11-27T19:03:26.437Z,14.30
2018-11-27T19:05:54.929Z,15.37
2018-11-27T19:08:23.384Z,13.90
2018-11-27T19:10:51.877Z,13.77
2018-11-27T19:13:20.319Z,14.83
2018-11-27T19:15:49.537Z,13.17
2018-11-27T19:18:22.988Z,13.50
2018-11-27T19:20:52.054Z,13.70
2018-11-27T19:23:21.932Z,12.03
2018-11-27T19:25:50.513Z,12.33
2018-11-27T19:28:19.000Z,13.13
2018-11-27T19:30:49.005Z,12.13
2018-11-27T19:33:17.742Z,13.67
2018-11-27T19:35:46.182Z,13.07
2018-11-27T19:38:16.407Z,12.80
2018-11-27T19:40:44.923Z,13.70
2018-11-27T19:43:14.099Z,12.80
2018-11-27T19:45:42.664Z,13.67
2018-11-27T19:48:11.954Z,12.03
2018-11-27T19:50:41.480Z,12.07
2018-11-27T19:53:12.393Z,16.17
2018-11-27T19:55:40.480Z,14.77
2018-11-27T19:58:09.845Z,13.70
2018-11-27T20:00:39.016Z,13.60
2018-11-27T20:03:09.279Z,12.70
2018-11-27T20:05:37.824Z,15.27
2018-11-27T20:08:09.341Z,12.13
2018-11-27T20:10:38.647Z,14.33
2018-11-27T20:13:07.162Z,15.97
2018-11-27T20:15:35.696Z,13.10
2018-11-27T20:18:04.287Z,14.70
2018-11-27T20:20:32.799Z,13.33
2018-11-27T20:23:05.713Z,13.77
2018-11-27T20:25:34.528Z,13.80
2018-11-27T20:28:03.666Z,13.13
2018-11-27T20:30:32.315Z,13.60
2018-11-27T20:33:02.516Z,15.70
2018-11-27T20:35:31.788Z,14.60
2018-11-27T20:38:01.906Z,13.60
2018-11-27T20:40:30.424Z,13.67
2018-11-27T20:42:59.503Z,13.83
2018-11-27T20:45:28.139Z,14.77
2018-11-27T20:48:00.564Z,14.47
2018-11-27T20:50:29.039Z,13.80
2018-11-27T20:52:57.560Z,13.40
2018-11-27T20:55:26.044Z,14.10
2018-11-27T20:57:56.787Z,12.87
2018-11-27T21:00:27.581Z,19.03
2018-11-27T21:02:59.402Z,14.47
2018-11-27T21:05:27.921Z,14.23
2018-11-27T21:07:56.428Z,14.57
2018-11-27T21:10:25.884Z,14.37
2018-11-27T21:12:54.439Z,15.87
2018-11-27T21:15:22.986Z,14.13
2018-11-27T21:17:51.494Z,14.23
2018-11-27T21:20:20.046Z,15.87
2018-11-27T21:22:48.590Z,14.23
2018-11-27T21:25:19.297Z,16.07
2018-11-27T21:27:49.658Z,14.23
2018-11-27T21:30:18.452Z,15.37
2018-11-27T21:32:46.926Z,15.37
2018-11-27T21:35:16.402Z,15.60
2018-11-27T21:37:44.884Z,14.40
2018-11-27T21:40:16.076Z,14.50
2018-11-27T21:42:44.706Z,15.57
2018-11-27T21:45:17.242Z,15.53
2018-11-27T21:47:48.919Z,14.83
2018-11-27T21:50:19.462Z,15.90
2018-11-27T21:52:50.795Z,14.30
2018-11-27T21:55:19.262Z,14.73
2018-11-27T21:57:47.725Z,14.73
2018-11-27T22:00:18.082Z,14.10
2018-11-27T22:02:46.984Z,15.90
2018-11-27T22:05:15.640Z,15.10
2018-11-27T22:07:44.548Z,15.93
2018-11-27T22:10:15.485Z,15.80
2018-11-27T22:12:45.120Z,15.50
2018-11-27T22:15:21.143Z,15.17
2018-11-27T22:17:49.624Z,15.80
2018-11-27T22:20:21.399Z,15.53
2018-11-27T22:22:46.605Z,16.13
2018-11-27T22:25:15.077Z,15.90
2018-11-27T22:27:43.539Z,17.60
2018-11-27T22:30:15.155Z,15.80
2018-11-27T22:32:45.567Z,14.50
2018-11-27T22:35:14.028Z,14.83
2018-11-27T22:37:42.511Z,17.07
2018-11-27T22:40:14.107Z,18.83
2018-11-27T22:42:42.696Z,13.90
2018-11-27T22:45:14.390Z,15.60
2018-11-27T22:47:42.900Z,15.63
2018-11-27T22:50:14.487Z,13.87
2018-11-27T22:52:42.942Z,15.80
2018-11-27T22:55:11.773Z,15.40
2018-11-27T22:57:40.244Z,14.57
2018-11-27T23:00:50.994Z,16.10
2018-11-27T23:03:19.785Z,15.73
2018-11-27T23:05:48.245Z,18.77
2018-11-27T23:08:16.780Z,22.30
2018-11-27T23:10:46.336Z,14.43
2018-11-27T23:13:14.791Z,15.17
2018-11-27T23:15:43.265Z,14.40
2018-11-27T23:18:11.694Z,15.03
2018-11-27T23:20:40.200Z,16.50
2018-11-27T23:23:08.652Z,15.30
2018-11-27T23:25:37.149Z,29.53
2018-11-27T23:28:05.775Z,16.20
2018-11-27T23:30:34.247Z,15.63
2018-11-27T23:33:02.693Z,15.60
2018-11-27T23:35:31.145Z,15.60
2018-11-27T23:38:00.037Z,18.20
2018-11-27T23:40:28.506Z,14.23
2018-11-27T23:42:56.993Z,17.03
2018-11-27T23:45:26.363Z,15.93
2018-11-27T23:47:54.786Z,16.33
2018-11-27T23:50:23.414Z,15.30
2018-11-27T23:52:51.840Z,15.83
2018-11-27T23:55:20.857Z,16.47
2018-11-27T23:57:49.622Z,21.77
